sensor_id;sensor_type;location;lat;lon;timestamp;pressure;altitude;pressure_sealevel;temperature;humidity
77583;BME280;66726;52.388;9.986;2024-03-06T00:00:03;101163.97;;;4.26;82.82
77583;BME280;66726;52.388;9.986;2024-03-06T00:02:31;101168.56;;;4.24;82.63
77583;BME280;66726;52.388;9.986;2024-03-06T00:05:01;101175.34;;;4.28;83.69
77583;BME280;66726;52.388;9.986;2024-03-06T00:07:29;101173.94;;;4.22;82.68
77583;BME280;66726;52.388;9.986;2024-03-06T00:09:58;101175.53;;;4.25;82.95
77583;BME280;66726;52.388;9.986;2024-03-06T00:12:26;101178.41;;;4.22;82.34
77583;BME280;66726;52.388;9.986;2024-03-06T00:14:54;101176.59;;;4.22;82.51
77583;BME280;66726;52.388;9.986;2024-03-06T00:17:22;101178.41;;;4.22;83.04
77583;BME280;66726;52.388;9.986;2024-03-06T00:19:50;101181.19;;;4.20;82.32
77583;BME280;66726;52.388;9.986;2024-03-06T00:22:20;101186.13;;;4.25;82.84
77583;BME280;66726;52.388;9.986;2024-03-06T00:24:51;101183.81;;;4.20;82.47
77583;BME280;66726;52.388;9.986;2024-03-06T00:27:19;101182.88;;;4.21;83.05
77583;BME280;66726;52.388;9.986;2024-03-06T00:29:47;101193.25;;;4.24;83.06
77583;BME280;66726;52.388;9.986;2024-03-06T00:32:16;101195.16;;;4.22;82.62
77583;BME280;66726;52.388;9.986;2024-03-06T00:34:44;101190.28;;;4.16;81.86
77583;BME280;66726;52.388;9.986;2024-03-06T00:37:12;101194.75;;;4.16;81.74
77583;BME280;66726;52.388;9.986;2024-03-06T00:39:42;101191.13;;;4.17;83.29
77583;BME280;66726;52.388;9.986;2024-03-06T00:42:11;101202.59;;;4.17;83.47
77583;BME280;66726;52.388;9.986;2024-03-06T00:44:40;101200.88;;;4.16;83.25
77583;BME280;66726;52.388;9.986;2024-03-06T00:47:09;101201.75;;;4.17;83.76
77583;BME280;66726;52.388;9.986;2024-03-06T00:49:37;101201.75;;;4.17;83.70
77583;BME280;66726;52.388;9.986;2024-03-06T00:52:06;101198.91;;;4.07;83.28
77583;BME280;66726;52.388;9.986;2024-03-06T00:54:34;101200.34;;;4.11;83.81
77583;BME280;66726;52.388;9.986;2024-03-06T00:57:03;101212.44;;;4.15;84.34
77583;BME280;66726;52.388;9.986;2024-03-06T00:59:31;101219.75;;;4.12;83.57
77583;BME280;66726;52.388;9.986;2024-03-06T01:01:59;101214.22;;;4.15;84.49
77583;BME280;66726;52.388;9.986;2024-03-06T01:04:28;101213.91;;;4.19;85.18
77583;BME280;66726;52.388;9.986;2024-03-06T01:06:56;101218.59;;;4.16;84.34
77583;BME280;66726;52.388;9.986;2024-03-06T01:09:25;101213.19;;;4.17;85.06
77583;BME280;66726;52.388;9.986;2024-03-06T01:11:54;101220.16;;;4.18;85.33
77583;BME280;66726;52.388;9.986;2024-03-06T01:14:23;101218.50;;;4.17;85.50
77583;BME280;66726;52.388;9.986;2024-03-06T01:16:51;101224.19;;;4.11;84.75
77583;BME280;66726;52.388;9.986;2024-03-06T01:19:19;101229.72;;;4.08;83.99
77583;BME280;66726;52.388;9.986;2024-03-06T01:21:47;101229.31;;;4.14;85.12
77583;BME280;66726;52.388;9.986;2024-03-06T01:24:16;101227.81;;;4.10;85.13
77583;BME280;66726;52.388;9.986;2024-03-06T01:26:44;101230.56;;;4.08;85.79
77583;BME280;66726;52.388;9.986;2024-03-06T01:29:13;101239.47;;;4.07;86.25
77583;BME280;66726;52.388;9.986;2024-03-06T01:31:42;101225.47;;;4.05;86.54
77583;BME280;66726;52.388;9.986;2024-03-06T01:34:13;101235.22;;;4.05;86.66
77583;BME280;66726;52.388;9.986;2024-03-06T01:36:41;101235.13;;;4.06;87.04
77583;BME280;66726;52.388;9.986;2024-03-06T01:39:09;101237.38;;;4.00;86.74
77583;BME280;66726;52.388;9.986;2024-03-06T01:41:44;101228.66;;;3.98;86.35
77583;BME280;66726;52.388;9.986;2024-03-06T01:44:12;101235.44;;;4.02;86.84
77583;BME280;66726;52.388;9.986;2024-03-06T01:46:43;101243.53;;;4.00;86.96
77583;BME280;66726;52.388;9.986;2024-03-06T01:49:13;101236.41;;;4.01;86.71
77583;BME280;66726;52.388;9.986;2024-03-06T01:51:59;101244.56;;;3.98;86.21
77583;BME280;66726;52.388;9.986;2024-03-06T01:54:30;101250.91;;;3.95;86.70
77583;BME280;66726;52.388;9.986;2024-03-06T01:57:01;101250.28;;;3.92;86.90
77583;BME280;66726;52.388;9.986;2024-03-06T01:59:30;101249.34;;;3.93;86.89
77583;BME280;66726;52.388;9.986;2024-03-06T02:02:05;101252.84;;;3.93;87.08
77583;BME280;66726;52.388;9.986;2024-03-06T02:04:35;101253.66;;;3.94;86.70
77583;BME280;66726;52.388;9.986;2024-03-06T02:07:04;101252.00;;;3.93;86.17
77583;BME280;66726;52.388;9.986;2024-03-06T02:09:37;101253.66;;;3.94;86.95
77583;BME280;66726;52.388;9.986;2024-03-06T02:12:06;101247.94;;;3.87;86.91
77583;BME280;66726;52.388;9.986;2024-03-06T02:14:35;101248.56;;;3.91;87.03
77583;BME280;66726;52.388;9.986;2024-03-06T02:17:05;101250.28;;;3.92;87.53
77583;BME280;66726;52.388;9.986;2024-03-06T02:19:40;101253.66;;;3.94;87.73
77583;BME280;66726;52.388;9.986;2024-03-06T02:22:11;101249.13;;;3.96;87.61
77583;BME280;66726;52.388;9.986;2024-03-06T02:24:44;101252.84;;;3.93;86.88
77583;BME280;66726;52.388;9.986;2024-03-06T02:27:13;101251.13;;;3.92;87.26
77583;BME280;66726;52.388;9.986;2024-03-06T02:29:41;101253.66;;;3.94;88.05
77583;BME280;66726;52.388;9.986;2024-03-06T02:32:09;101258.78;;;3.97;87.29
77583;BME280;66726;52.388;9.986;2024-03-06T02:34:40;101260.88;;;3.92;86.49
77583;BME280;66726;52.388;9.986;2024-03-06T02:37:10;101253.88;;;3.91;87.17
77583;BME280;66726;52.388;9.986;2024-03-06T02:39:38;101251.34;;;3.89;86.58
77583;BME280;66726;52.388;9.986;2024-03-06T02:42:06;101260.25;;;3.88;87.04
77583;BME280;66726;52.388;9.986;2024-03-06T02:44:35;101260.88;;;3.92;88.04
77583;BME280;66726;52.388;9.986;2024-03-06T02:47:04;101252.94;;;3.92;88.03
77583;BME280;66726;52.388;9.986;2024-03-06T02:49:32;101262.81;;;3.90;87.03
77583;BME280;66726;52.388;9.986;2024-03-06T02:52:00;101258.22;;;3.92;87.30
77583;BME280;66726;52.388;9.986;2024-03-06T02:54:30;101262.81;;;3.90;86.56
77583;BME280;66726;52.388;9.986;2024-03-06T02:56:58;101263.00;;;3.87;87.19
77583;BME280;66726;52.388;9.986;2024-03-06T02:59:26;101258.44;;;3.89;87.98
77583;BME280;66726;52.388;9.986;2024-03-06T03:01:55;101269.03;;;3.89;87.27
77583;BME280;66726;52.388;9.986;2024-03-06T03:04:23;101265.09;;;3.82;86.73
77583;BME280;66726;52.388;9.986;2024-03-06T03:06:51;101266.59;;;3.86;87.52
77583;BME280;66726;52.388;9.986;2024-03-06T03:09:19;101267.25;;;3.89;87.74
77583;BME280;66726;52.388;9.986;2024-03-06T03:11:49;101267.47;;;3.86;87.35
77583;BME280;66726;52.388;9.986;2024-03-06T03:14:17;101269.97;;;3.88;87.17
77583;BME280;66726;52.388;9.986;2024-03-06T03:16:45;101270.84;;;3.88;87.45
77583;BME280;66726;52.388;9.986;2024-03-06T03:19:13;101281.34;;;3.90;87.40
77583;BME280;66726;52.388;9.986;2024-03-06T03:21:44;101278.69;;;3.90;87.90
77583;BME280;66726;52.388;9.986;2024-03-06T03:24:12;101281.44;;;3.88;87.80
77583;BME280;66726;52.388;9.986;2024-03-06T03:26:40;101278.91;;;3.87;87.53
77583;BME280;66726;52.388;9.986;2024-03-06T03:29:10;101280.28;;;3.80;87.12
77583;BME280;66726;52.388;9.986;2024-03-06T03:31:38;101284.59;;;3.81;87.32
77583;BME280;66726;52.388;9.986;2024-03-06T03:34:07;101281.84;;;3.82;87.28
77583;BME280;66726;52.388;9.986;2024-03-06T03:36:39;101283.34;;;3.86;87.94
77583;BME280;66726;52.388;9.986;2024-03-06T03:39:09;101277.63;;;3.80;87.77
77583;BME280;66726;52.388;9.986;2024-03-06T03:41:45;101283.00;;;3.78;87.09
77583;BME280;66726;52.388;9.986;2024-03-06T03:44:17;101283.09;;;3.77;87.01
77583;BME280;66726;52.388;9.986;2024-03-06T03:46:45;101292.53;;;3.81;87.46
77583;BME280;66726;52.388;9.986;2024-03-06T03:49:14;101290.09;;;3.78;87.71
77583;BME280;66726;52.388;9.986;2024-03-06T03:51:43;101286.50;;;3.79;87.65
77583;BME280;66726;52.388;9.986;2024-03-06T03:54:11;101290.22;;;3.76;87.37
77583;BME280;66726;52.388;9.986;2024-03-06T03:56:39;101295.31;;;3.79;87.21
77583;BME280;66726;52.388;9.986;2024-03-06T03:59:14;101292.66;;;3.79;86.60
77583;BME280;66726;52.388;9.986;2024-03-06T04:01:45;101286.72;;;3.76;87.15
77583;BME280;66726;52.388;9.986;2024-03-06T04:04:14;101297.09;;;3.79;87.99
77583;BME280;66726;52.388;9.986;2024-03-06T04:06:42;101298.91;;;3.78;87.65
77583;BME280;66726;52.388;9.986;2024-03-06T04:09:10;101295.41;;;3.78;87.66
77583;BME280;66726;52.388;9.986;2024-03-06T04:11:38;101303.34;;;3.78;87.40
77583;BME280;66726;52.388;9.986;2024-03-06T04:14:07;101294.53;;;3.77;87.50
77583;BME280;66726;52.388;9.986;2024-03-06T04:16:37;101302.81;;;3.73;87.39
77583;BME280;66726;52.388;9.986;2024-03-06T04:19:05;101299.19;;;3.74;87.67
77583;BME280;66726;52.388;9.986;2024-03-06T04:21:33;101300.91;;;3.75;87.83
77583;BME280;66726;52.388;9.986;2024-03-06T04:24:01;101308.13;;;3.73;87.45
77583;BME280;66726;52.388;9.986;2024-03-06T04:26:29;101303.03;;;3.70;87.79
77583;BME280;66726;52.388;9.986;2024-03-06T04:28:57;101308.13;;;3.73;87.95
77583;BME280;66726;52.388;9.986;2024-03-06T04:31:26;101315.09;;;3.74;87.66
77583;BME280;66726;52.388;9.986;2024-03-06T04:33:55;101315.72;;;3.77;87.96
77583;BME280;66726;52.388;9.986;2024-03-06T04:36:23;101324.53;;;3.78;88.18
77583;BME280;66726;52.388;9.986;2024-03-06T04:38:51;101324.00;;;3.73;87.86
77583;BME280;66726;52.388;9.986;2024-03-06T04:41:19;101319.56;;;3.73;88.75
77583;BME280;66726;52.388;9.986;2024-03-06T04:43:47;101328.66;;;3.69;87.85
77583;BME280;66726;52.388;9.986;2024-03-06T04:46:17;101328.66;;;3.69;87.68
77583;BME280;66726;52.388;9.986;2024-03-06T04:48:46;101332.44;;;3.65;88.40
77583;BME280;66726;52.388;9.986;2024-03-06T04:51:16;101326.09;;;3.68;88.69
77583;BME280;66726;52.388;9.986;2024-03-06T04:53:48;101337.84;;;3.64;87.31
77583;BME280;66726;52.388;9.986;2024-03-06T04:56:16;101338.47;;;3.67;88.27
77583;BME280;66726;52.388;9.986;2024-03-06T04:58:46;101338.41;;;3.69;88.07
77583;BME280;66726;52.388;9.986;2024-03-06T05:01:14;101339.97;;;3.71;88.72
77583;BME280;66726;52.388;9.986;2024-03-06T05:03:42;101351.22;;;3.75;88.96
77583;BME280;66726;52.388;9.986;2024-03-06T05:06:29;101349.94;;;3.68;88.30
77583;BME280;66726;52.388;9.986;2024-03-06T05:09:15;101352.56;;;3.68;88.29
77583;BME280;66726;52.388;9.986;2024-03-06T05:12:01;101351.84;;;3.66;88.87
77583;BME280;66726;52.388;9.986;2024-03-06T05:14:46;101351.53;;;3.70;88.61
77583;BME280;66726;52.388;9.986;2024-03-06T05:17:34;101358.31;;;3.74;89.18
77583;BME280;66726;52.388;9.986;2024-03-06T05:20:19;101363.59;;;3.74;88.78
77583;BME280;66726;52.388;9.986;2024-03-06T05:23:06;101363.72;;;3.73;88.59
77583;BME280;66726;52.388;9.986;2024-03-06T05:25:52;101360.97;;;3.74;89.53
77583;BME280;66726;52.388;9.986;2024-03-06T05:28:38;101374.19;;;3.74;89.36
77583;BME280;66726;52.388;9.986;2024-03-06T05:31:23;101376.00;;;3.74;89.49
77583;BME280;66726;52.388;9.986;2024-03-06T05:34:09;101378.66;;;3.74;89.13
77583;BME280;66726;52.388;9.986;2024-03-06T05:36:55;101379.91;;;3.68;88.71
77583;BME280;66726;52.388;9.986;2024-03-06T05:39:42;101384.16;;;3.71;89.38
77583;BME280;66726;52.388;9.986;2024-03-06T05:42:28;101396.44;;;3.72;89.92
77583;BME280;66726;52.388;9.986;2024-03-06T05:45:15;101395.72;;;3.70;89.64
77583;BME280;66726;52.388;9.986;2024-03-06T05:48:01;101401.94;;;3.69;89.09
77583;BME280;66726;52.388;9.986;2024-03-06T05:50:48;101403.66;;;3.70;89.64
77583;BME280;66726;52.388;9.986;2024-03-06T05:53:36;101407.03;;;3.72;89.65
77583;BME280;66726;52.388;9.986;2024-03-06T05:56:24;101404.38;;;3.72;89.49
77583;BME280;66726;52.388;9.986;2024-03-06T05:59:10;101409.91;;;3.69;89.12
77583;BME280;66726;52.388;9.986;2024-03-06T06:01:39;101410.50;;;3.60;89.10
77583;BME280;66726;52.388;9.986;2024-03-06T06:04:08;101415.69;;;3.61;89.15
77583;BME280;66726;52.388;9.986;2024-03-06T06:06:37;101416.41;;;3.63;89.34
77583;BME280;66726;52.388;9.986;2024-03-06T06:09:06;101413.88;;;3.62;88.98
77583;BME280;66726;52.388;9.986;2024-03-06T06:11:35;101420.31;;;3.57;89.09
77583;BME280;66726;52.388;9.986;2024-03-06T06:14:04;101419.66;;;3.54;89.74
77583;BME280;66726;52.388;9.986;2024-03-06T06:16:36;101421.09;;;3.60;90.10
77583;BME280;66726;52.388;9.986;2024-03-06T06:19:05;101422.44;;;3.52;89.74
77583;BME280;66726;52.388;9.986;2024-03-06T06:21:34;101422.03;;;3.58;90.12
77583;BME280;66726;52.388;9.986;2024-03-06T06:24:03;101420.31;;;3.57;90.47
77583;BME280;66726;52.388;9.986;2024-03-06T06:26:32;101429.22;;;3.56;90.22
77583;BME280;66726;52.388;9.986;2024-03-06T06:29:02;101434.50;;;3.56;90.30
77583;BME280;66726;52.388;9.986;2024-03-06T06:31:30;101437.06;;;3.58;90.55
77583;BME280;66726;52.388;9.986;2024-03-06T06:33:58;101443.28;;;3.57;90.28
77583;BME280;66726;52.388;9.986;2024-03-06T06:36:27;101446.91;;;3.56;91.27
77583;BME280;66726;52.388;9.986;2024-03-06T06:38:56;101446.91;;;3.56;91.30
77583;BME280;66726;52.388;9.986;2024-03-06T06:41:26;101443.41;;;3.55;91.46
77583;BME280;66726;52.388;9.986;2024-03-06T06:43:54;101446.91;;;3.56;91.64
77583;BME280;66726;52.388;9.986;2024-03-06T06:46:25;101444.91;;;3.60;91.70
77583;BME280;66726;52.388;9.986;2024-03-06T06:48:53;101452.22;;;3.56;91.57
77583;BME280;66726;52.388;9.986;2024-03-06T06:51:21;101446.53;;;3.48;91.04
77583;BME280;66726;52.388;9.986;2024-03-06T06:53:50;101461.38;;;3.50;91.42
77583;BME280;66726;52.388;9.986;2024-03-06T06:56:18;101455.03;;;3.53;91.40
77583;BME280;66726;52.388;9.986;2024-03-06T06:58:47;101464.97;;;3.49;91.63
77583;BME280;66726;52.388;9.986;2024-03-06T07:01:15;101463.47;;;3.45;91.03
77583;BME280;66726;52.388;9.986;2024-03-06T07:03:45;101470.09;;;3.52;91.46
77583;BME280;66726;52.388;9.986;2024-03-06T07:06:13;101482.47;;;3.52;92.15
77583;BME280;66726;52.388;9.986;2024-03-06T07:08:41;101475.38;;;3.52;91.89
77583;BME280;66726;52.388;9.986;2024-03-06T07:11:10;101479.63;;;3.55;91.78
77583;BME280;66726;52.388;9.986;2024-03-06T07:13:38;101480.47;;;3.55;91.56
77583;BME280;66726;52.388;9.986;2024-03-06T07:16:07;101484.06;;;3.54;92.05
77583;BME280;66726;52.388;9.986;2024-03-06T07:18:36;101484.91;;;3.55;91.73
77583;BME280;66726;52.388;9.986;2024-03-06T07:21:05;101487.44;;;3.56;91.81
77583;BME280;66726;52.388;9.986;2024-03-06T07:23:34;101492.88;;;3.55;91.44
77583;BME280;66726;52.388;9.986;2024-03-06T07:26:02;101500.81;;;3.55;91.96
77583;BME280;66726;52.388;9.986;2024-03-06T07:28:31;101501.84;;;3.52;91.49
77583;BME280;66726;52.388;9.986;2024-03-06T07:30:59;101506.75;;;3.58;92.01
77583;BME280;66726;52.388;9.986;2024-03-06T07:33:27;101503.16;;;3.60;91.39
77583;BME280;66726;52.388;9.986;2024-03-06T07:35:56;101505.03;;;3.57;91.57
77583;BME280;66726;52.388;9.986;2024-03-06T07:38:26;101516.94;;;3.65;92.40
77583;BME280;66726;52.388;9.986;2024-03-06T07:40:55;101522.25;;;3.65;91.98
77583;BME280;66726;52.388;9.986;2024-03-06T07:43:23;101518.88;;;3.63;91.95
77583;BME280;66726;52.388;9.986;2024-03-06T07:45:51;101528.88;;;3.57;92.41
77583;BME280;66726;52.388;9.986;2024-03-06T07:48:19;101529.44;;;3.63;92.97
77583;BME280;66726;52.388;9.986;2024-03-06T07:50:48;101531.13;;;3.64;92.06
77583;BME280;66726;52.388;9.986;2024-03-06T07:53:16;101536.44;;;3.64;91.98
77583;BME280;66726;52.388;9.986;2024-03-06T07:55:46;101537.28;;;3.64;91.72
77583;BME280;66726;52.388;9.986;2024-03-06T07:58:14;101538.78;;;3.68;92.22
77583;BME280;66726;52.388;9.986;2024-03-06T08:00:43;101552.78;;;3.70;92.34
77583;BME280;66726;52.388;9.986;2024-03-06T08:03:11;101544.75;;;3.72;92.52
77583;BME280;66726;52.388;9.986;2024-03-06T08:05:40;101551.84;;;3.71;93.17
77583;BME280;66726;52.388;9.986;2024-03-06T08:08:08;101561.38;;;3.74;91.67
77583;BME280;66726;52.388;9.986;2024-03-06T08:10:37;101564.69;;;3.77;92.21
77583;BME280;66726;52.388;9.986;2024-03-06T08:13:06;101568.38;;;3.75;92.07
77583;BME280;66726;52.388;9.986;2024-03-06T08:15:34;101571.69;;;3.78;92.65
77583;BME280;66726;52.388;9.986;2024-03-06T08:18:03;101567.06;;;3.82;92.29
77583;BME280;66726;52.388;9.986;2024-03-06T08:20:31;101573.09;;;3.84;92.25
77583;BME280;66726;52.388;9.986;2024-03-06T08:22:59;101574.72;;;3.86;91.83
77583;BME280;66726;52.388;9.986;2024-03-06T08:25:28;101579.03;;;3.87;92.44
77583;BME280;66726;52.388;9.986;2024-03-06T08:27:59;101587.44;;;3.94;92.26
77583;BME280;66726;52.388;9.986;2024-03-06T08:30:29;101587.44;;;3.94;92.15
77583;BME280;66726;52.388;9.986;2024-03-06T08:32:58;101583.59;;;3.99;92.64
77583;BME280;66726;52.388;9.986;2024-03-06T08:35:28;101592.94;;;4.05;92.49
77583;BME280;66726;52.388;9.986;2024-03-06T08:37:56;101590.94;;;4.08;92.33
77583;BME280;66726;52.388;9.986;2024-03-06T08:40:24;101597.09;;;4.09;91.49
77583;BME280;66726;52.388;9.986;2024-03-06T08:42:54;101602.97;;;4.14;91.66
77583;BME280;66726;52.388;9.986;2024-03-06T08:45:23;101607.09;;;4.18;91.60
77583;BME280;66726;52.388;9.986;2024-03-06T08:47:52;101608.59;;;4.22;91.62
77583;BME280;66726;52.388;9.986;2024-03-06T08:50:21;101600.44;;;4.25;91.71
77583;BME280;66726;52.388;9.986;2024-03-06T08:52:50;101610.09;;;4.26;90.85
77583;BME280;66726;52.388;9.986;2024-03-06T08:55:18;101614.75;;;4.23;90.25
77583;BME280;66726;52.388;9.986;2024-03-06T08:57:47;101616.25;;;4.27;90.56
77583;BME280;66726;52.388;9.986;2024-03-06T09:00:17;101618.63;;;4.31;90.55
77583;BME280;66726;52.388;9.986;2024-03-06T09:02:46;101617.56;;;4.34;90.23
77583;BME280;66726;52.388;9.986;2024-03-06T09:05:15;101619.16;;;4.36;89.60
77583;BME280;66726;52.388;9.986;2024-03-06T09:07:43;101620.69;;;4.40;90.30
77583;BME280;66726;52.388;9.986;2024-03-06T09:10:12;101621.22;;;4.45;90.27
77583;BME280;66726;52.388;9.986;2024-03-06T09:12:41;101623.13;;;4.43;89.11
77583;BME280;66726;52.388;9.986;2024-03-06T09:15:09;101627.50;;;4.44;89.02
77583;BME280;66726;52.388;9.986;2024-03-06T09:17:38;101616.56;;;4.49;89.86
77583;BME280;66726;52.388;9.986;2024-03-06T09:20:08;101623.50;;;4.51;89.75
77583;BME280;66726;52.388;9.986;2024-03-06T09:22:41;101630.19;;;4.57;90.43
77583;BME280;66726;52.388;9.986;2024-03-06T09:25:11;101637.84;;;4.62;89.89
77583;BME280;66726;52.388;9.986;2024-03-06T09:27:41;101641.16;;;4.65;89.37
77583;BME280;66726;52.388;9.986;2024-03-06T09:30:10;101638.19;;;4.70;89.77
77583;BME280;66726;52.388;9.986;2024-03-06T09:32:40;101646.78;;;4.73;90.29
77583;BME280;66726;52.388;9.986;2024-03-06T09:35:10;101642.34;;;4.74;88.77
77583;BME280;66726;52.388;9.986;2024-03-06T09:37:40;101646.41;;;4.79;89.40
77583;BME280;66726;52.388;9.986;2024-03-06T09:40:11;101643.41;;;4.84;90.24
77583;BME280;66726;52.388;9.986;2024-03-06T09:42:47;101643.22;;;4.87;89.26
77583;BME280;66726;52.388;9.986;2024-03-06T09:45:16;101652.59;;;4.92;89.33
77583;BME280;66726;52.388;9.986;2024-03-06T09:47:49;101653.75;;;4.88;88.05
77583;BME280;66726;52.388;9.986;2024-03-06T09:50:22;101655.03;;;4.95;89.57
77583;BME280;66726;52.388;9.986;2024-03-06T09:52:54;101652.81;;;5.02;88.44
77583;BME280;66726;52.388;9.986;2024-03-06T09:55:24;101656.00;;;5.07;89.12
77583;BME280;66726;52.388;9.986;2024-03-06T09:57:53;101667.19;;;5.12;89.59
77583;BME280;66726;52.388;9.986;2024-03-06T10:00:21;101663.47;;;5.15;88.63
77583;BME280;66726;52.388;9.986;2024-03-06T10:02:57;101664.75;;;5.22;89.09
77583;BME280;66726;52.388;9.986;2024-03-06T10:05:27;101666.34;;;5.24;87.64
77583;BME280;66726;52.388;9.986;2024-03-06T10:07:59;101665.31;;;5.27;87.65
77583;BME280;66726;52.388;9.986;2024-03-06T10:10:28;101664.88;;;5.33;88.00
77583;BME280;66726;52.388;9.986;2024-03-06T10:12:56;101670.06;;;5.34;87.13
77583;BME280;66726;52.388;9.986;2024-03-06T10:15:29;101670.53;;;5.41;88.12
77583;BME280;66726;52.388;9.986;2024-03-06T10:18:14;101665.88;;;5.44;87.55
77583;BME280;66726;52.388;9.986;2024-03-06T10:20:46;101662.78;;;5.50;87.75
77583;BME280;66726;52.388;9.986;2024-03-06T10:23:15;101674.78;;;5.56;87.41
77583;BME280;66726;52.388;9.986;2024-03-06T10:25:46;101668.22;;;5.61;87.13
77583;BME280;66726;52.388;9.986;2024-03-06T10:28:19;101674.69;;;5.70;88.10
77583;BME280;66726;52.388;9.986;2024-03-06T10:30:50;101671.94;;;5.72;86.10
77583;BME280;66726;52.388;9.986;2024-03-06T10:33:19;101681.56;;;5.73;85.85
77583;BME280;66726;52.388;9.986;2024-03-06T10:35:48;101686.50;;;5.79;85.96
77583;BME280;66726;52.388;9.986;2024-03-06T10:38:20;101682.25;;;5.89;86.88
77583;BME280;66726;52.388;9.986;2024-03-06T10:40:51;101689.03;;;5.93;85.56
77583;BME280;66726;52.388;9.986;2024-03-06T10:43:22;101688.63;;;5.99;85.54
77583;BME280;66726;52.388;9.986;2024-03-06T10:46:00;101688.63;;;5.99;83.23
77583;BME280;66726;52.388;9.986;2024-03-06T10:48:28;101695.22;;;6.06;85.09
77583;BME280;66726;52.388;9.986;2024-03-06T10:50:58;101698.38;;;6.11;85.14
77583;BME280;66726;52.388;9.986;2024-03-06T10:53:32;101694.56;;;6.15;84.04
77583;BME280;66726;52.388;9.986;2024-03-06T10:56:04;101700.59;;;6.17;82.03
77583;BME280;66726;52.388;9.986;2024-03-06T10:58:38;101694.97;;;6.22;82.84
77583;BME280;66726;52.388;9.986;2024-03-06T11:01:08;101699.44;;;6.21;81.48
77583;BME280;66726;52.388;9.986;2024-03-06T11:03:37;101698.03;;;6.28;82.18
77583;BME280;66726;52.388;9.986;2024-03-06T11:06:06;101693.13;;;6.35;82.44
77583;BME280;66726;52.388;9.986;2024-03-06T11:08:36;101699.22;;;6.37;80.49
77583;BME280;66726;52.388;9.986;2024-03-06T11:11:20;101700.56;;;6.42;82.09
77583;BME280;66726;52.388;9.986;2024-03-06T11:13:49;101708.09;;;6.48;82.54
77583;BME280;66726;52.388;9.986;2024-03-06T11:16:17;101702.56;;;6.51;81.55
77583;BME280;66726;52.388;9.986;2024-03-06T11:18:45;101709.56;;;6.52;80.40
77583;BME280;66726;52.388;9.986;2024-03-06T11:21:47;101706.69;;;6.55;80.66
77583;BME280;66726;52.388;9.986;2024-03-06T11:24:19;101707.53;;;6.56;79.93
77583;BME280;66726;52.388;9.986;2024-03-06T11:27:00;101704.44;;;6.62;80.79
77583;BME280;66726;52.388;9.986;2024-03-06T11:29:44;101708.47;;;6.68;80.67
77583;BME280;66726;52.388;9.986;2024-03-06T11:32:18;101702.69;;;6.74;80.59
77583;BME280;66726;52.388;9.986;2024-03-06T11:34:46;101707.56;;;6.80;82.14
77583;BME280;66726;52.388;9.986;2024-03-06T11:37:21;101703.72;;;6.84;82.70
77583;BME280;66726;52.388;9.986;2024-03-06T11:39:51;101711.47;;;6.87;79.98
77583;BME280;66726;52.388;9.986;2024-03-06T11:42:33;101716.47;;;6.91;80.48
77583;BME280;66726;52.388;9.986;2024-03-06T11:45:16;101711.78;;;6.95;80.36
77583;BME280;66726;52.388;9.986;2024-03-06T11:48:00;101707.91;;;6.99;79.51
77583;BME280;66726;52.388;9.986;2024-03-06T11:50:29;101715.56;;;7.03;80.28
77583;BME280;66726;52.388;9.986;2024-03-06T11:52:59;101713.50;;;7.07;79.31
77583;BME280;66726;52.388;9.986;2024-03-06T11:55:28;101708.91;;;7.09;76.68
77583;BME280;66726;52.388;9.986;2024-03-06T11:57:58;101709.34;;;7.16;78.28
77583;BME280;66726;52.388;9.986;2024-03-06T12:00:26;101711.63;;;7.20;78.64
77583;BME280;66726;52.388;9.986;2024-03-06T12:02:54;101711.16;;;7.26;78.83
77583;BME280;66726;52.388;9.986;2024-03-06T12:05:23;101719.44;;;7.34;78.24
77583;BME280;66726;52.388;9.986;2024-03-06T12:07:51;101715.44;;;7.40;77.28
77583;BME280;66726;52.388;9.986;2024-03-06T12:10:20;101715.34;;;7.41;75.13
77583;BME280;66726;52.388;9.986;2024-03-06T12:12:49;101715.09;;;7.44;76.66
77583;BME280;66726;52.388;9.986;2024-03-06T12:15:18;101720.94;;;7.49;76.40
77583;BME280;66726;52.388;9.986;2024-03-06T12:17:48;101709.31;;;7.50;74.11
77583;BME280;66726;52.388;9.986;2024-03-06T12:20:18;101716.09;;;7.54;74.01
77583;BME280;66726;52.388;9.986;2024-03-06T12:22:49;101719.53;;;7.56;73.43
77583;BME280;66726;52.388;9.986;2024-03-06T12:25:18;101712.75;;;7.63;74.35
77583;BME280;66726;52.388;9.986;2024-03-06T12:27:49;101717.59;;;7.70;75.40
77583;BME280;66726;52.388;9.986;2024-03-06T12:30:19;101718.84;;;7.77;75.42
77583;BME280;66726;52.388;9.986;2024-03-06T12:32:56;101710.34;;;7.83;74.42
77583;BME280;66726;52.388;9.986;2024-03-06T12:35:25;101719.81;;;7.87;73.28
77583;BME280;66726;52.388;9.986;2024-03-06T12:37:54;101715.56;;;7.95;73.37
77583;BME280;66726;52.388;9.986;2024-03-06T12:40:23;101708.78;;;7.91;71.08
77583;BME280;66726;52.388;9.986;2024-03-06T12:42:52;101707.84;;;8.03;70.78
77583;BME280;66726;52.388;9.986;2024-03-06T12:45:20;101715.72;;;8.16;72.82
77583;BME280;66726;52.388;9.986;2024-03-06T12:47:49;101717.66;;;8.25;72.46
77583;BME280;66726;52.388;9.986;2024-03-06T12:50:18;101719.59;;;8.23;69.15
77583;BME280;66726;52.388;9.986;2024-03-06T12:52:47;101711.88;;;8.31;70.14
77583;BME280;66726;52.388;9.986;2024-03-06T12:55:15;101710.63;;;8.46;72.60
77583;BME280;66726;52.388;9.986;2024-03-06T12:57:43;101704.06;;;8.61;68.71
77583;BME280;66726;52.388;9.986;2024-03-06T13:00:15;101710.09;;;8.75;69.04
77583;BME280;66726;52.388;9.986;2024-03-06T13:02:43;101705.00;;;8.72;66.81
77583;BME280;66726;52.388;9.986;2024-03-06T13:05:12;101710.06;;;8.97;68.24
77583;BME280;66726;52.388;9.986;2024-03-06T13:07:42;101699.84;;;8.91;65.44
77583;BME280;66726;52.388;9.986;2024-03-06T13:10:11;101700.97;;;9.20;67.16
77583;BME280;66726;52.388;9.986;2024-03-06T13:12:40;101693.88;;;9.30;67.14
77583;BME280;66726;52.388;9.986;2024-03-06T13:15:09;101696.19;;;9.55;68.93
77583;BME280;66726;52.388;9.986;2024-03-06T13:17:38;101696.84;;;9.68;66.25